Time;durP1;ratioP1;P1;durP2;ratioP2;P2;SDS_P1;SDS_P2;PMS_P1;PMS_P2;Temp;Humidity;BMP_temperature;BMP_pressure;BME280_temperature;BME280_humidity;BME280_pressure;Samples;Min_cycle;Max_cycle;Signal;HPM_P1;HPM_P2
2020/12/15 00:01:47;;;;;;;47.15;21.02;;;;;;;16.89;52.83;155560.33;1697739;83;21213;-70
2020/12/15 00:04:21;;;;;;;51.95;22.58;;;;;;;16.93;52.64;155572.19;1691542;83;21355;-69
2020/12/15 00:06:53;;;;;;;48.13;21.73;;;;;;;16.86;52.44;155552.41;1729218;82;21208;-70
2020/12/15 00:09:27;;;;;;;42.23;20.20;;;;;;;16.79;52.53;155535.27;1726541;82;21224;-70
2020/12/15 00:12:00;;;;;;;61.45;20.65;;;;;;;16.76;52.53;155527.34;1713588;83;21220;-69
2020/12/15 00:14:33;;;;;;;44.38;20.27;;;;;;;16.74;52.60;155522.06;1687617;83;21755;-69
2020/12/15 00:17:06;;;;;;;42.95;20.70;;;;;;;16.70;52.71;155511.56;1737565;81;21319;-69
2020/12/15 00:19:38;;;;;;;43.17;19.70;;;;;;;16.71;52.69;155512.84;1708887;83;21723;-69
2020/12/15 00:22:11;;;;;;;40.05;18.00;;;;;;;16.71;52.65;155512.84;1695094;83;21368;-69
2020/12/15 00:24:45;;;;;;;38.02;18.67;;;;;;;16.99;52.29;155586.69;1709516;83;21296;-69
2020/12/15 00:27:18;;;;;;;41.88;17.80;;;;;;;17.02;52.27;155594.56;1689167;83;21259;-68
2020/12/15 00:29:50;;;;;;;38.88;17.98;;;;;;;16.38;53.29;155425.87;1710441;83;21361;-68
2020/12/15 00:32:23;;;;;;;44.73;19.90;;;;;;;16.26;53.55;155395.50;1728679;81;21220;-69
2020/12/15 00:34:55;;;;;;;40.12;19.40;;;;;;;16.25;53.59;155391.56;1720686;82;21208;-68
2020/12/15 00:37:30;;;;;;;38.90;18.40;;;;;;;16.22;53.31;155382.36;1687427;83;21292;-69
2020/12/15 00:40:03;;;;;;;44.48;19.40;;;;;;;16.13;53.87;155358.66;1727653;81;21403;-69
2020/12/15 00:42:35;;;;;;;44.58;19.25;;;;;;;15.74;54.14;155255.91;1688247;84;21366;-69
2020/12/15 00:45:09;;;;;;;48.68;18.87;;;;;;;16.09;53.70;155348.09;1725777;82;21351;-69
2020/12/15 00:47:42;;;;;;;41.80;18.55;;;;;;;15.81;54.08;155274.31;1683549;84;21683;-68
2020/12/15 00:50:15;;;;;;;42.95;19.60;;;;;;;16.37;53.49;155424.59;1727670;82;21704;-69
2020/12/15 00:52:47;;;;;;;45.17;19.12;;;;;;;16.51;53.18;155461.44;1729195;82;21715;-68
2020/12/15 00:55:20;;;;;;;48.78;20.23;;;;;;;16.60;52.99;155483.86;1728175;81;21228;-68
2020/12/15 00:57:53;;;;;;;40.12;18.17;;;;;;;16.50;53.18;155458.80;1690128;84;21503;-69
2020/12/15 01:00:26;;;;;;;43.33;18.57;;;;;;;16.57;53.03;155475.94;1700449;83;21321;-69
2020/12/15 01:02:59;;;;;;;41.65;19.25;;;;;;;16.56;52.97;155473.30;1694767;83;21366;-68
2020/12/15 01:05:32;;;;;;;50.38;20.30;;;;;;;16.44;53.11;155441.67;1738714;81;21450;-68
2020/12/15 01:08:05;;;;;;;46.20;20.68;;;;;;;16.50;53.05;155457.50;1709097;83;21438;-68
2020/12/15 01:10:38;;;;;;;47.85;19.92;;;;;;;16.54;53.03;155469.36;1708797;83;21216;-68
2020/12/15 01:13:11;;;;;;;52.80;20.32;;;;;;;16.42;53.05;155436.44;1695215;83;21283;-68
2020/12/15 01:15:45;;;;;;;45.78;20.57;;;;;;;16.54;53.02;155469.36;1737634;81;21221;-68
2020/12/15 01:18:19;;;;;;;41.05;18.87;;;;;;;16.56;52.88;155474.64;1680065;84;21160;-68
2020/12/15 01:20:51;;;;;;;43.08;19.17;;;;;;;16.40;53.04;155432.45;1720528;81;21216;-68
2020/12/15 01:23:24;;;;;;;45.23;19.95;;;;;;;16.47;53.05;155450.94;1678427;85;21224;-68
2020/12/15 01:25:58;;;;;;;51.08;20.62;;;;;;;16.54;53.00;155469.36;1707849;83;21205;-69
2020/12/15 01:28:30;;;;;;;46.30;19.80;;;;;;;16.52;52.94;155462.78;1708247;83;21212;-69
2020/12/15 01:31:03;;;;;;;47.05;20.23;;;;;;;16.55;52.83;155472.00;1711128;83;21268;-68
2020/12/15 01:33:43;;;;;;;47.55;21.17;;;;;;;16.47;52.83;155450.94;1677272;83;21348;-69
2020/12/15 01:36:18;;;;;;;68.92;31.85;;;;;;;16.44;52.96;155443.02;1677519;84;21366;-69
2020/12/15 01:38:52;;;;;;;66.70;30.05;;;;;;;16.28;53.20;155400.78;1739202;81;21173;-69
2020/12/15 01:41:26;;;;;;;61.48;27.87;;;;;;;16.39;53.30;155428.52;1698918;84;21395;-68
2020/12/15 01:44:04;;;;;;;57.67;25.05;;;;;;;16.49;53.23;155454.88;1712395;83;21427;-68
2020/12/15 01:46:39;;;;;;;57.60;24.82;;;;;;;16.64;53.16;155494.42;1698538;82;21370;-68
2020/12/15 01:49:13;;;;;;;55.80;24.60;;;;;;;16.35;53.45;155417.97;1707679;82;21705;-69
2020/12/15 01:51:47;;;;;;;58.23;24.07;;;;;;;15.69;54.44;155242.72;1699166;84;21383;-69
2020/12/15 01:54:20;;;;;;;51.73;25.00;;;;;;;15.60;54.71;155220.36;1704975;83;21232;-69
2020/12/15 01:56:55;;;;;;;54.90;24.02;;;;;;;15.58;54.86;155213.75;1723764;82;21281;-68
2020/12/15 01:59:32;;;;;;;60.12;24.87;;;;;;;15.59;54.83;155217.73;1686776;83;21256;-69
2020/12/15 02:02:06;;;;;;;53.73;23.22;;;;;;;15.61;54.80;155223.00;1739182;81;21261;-69
2020/12/15 02:04:42;;;;;;;54.00;23.30;;;;;;;15.59;54.82;155217.73;1690090;83;21318;-68
2020/12/15 02:07:15;;;;;;;47.17;22.45;;;;;;;15.57;54.77;155211.11;1710374;83;21339;-68
2020/12/15 02:09:48;;;;;;;54.70;25.00;;;;;;;15.33;55.09;155146.62;1734024;81;21406;-68
2020/12/15 02:12:22;;;;;;;49.65;23.25;;;;;;;15.42;55.18;155172.94;1734614;80;21208;-68
2020/12/15 02:14:55;;;;;;;52.73;21.87;;;;;;;15.45;55.14;155180.84;1731775;81;21347;-68
2020/12/15 02:17:28;;;;;;;53.40;22.85;;;;;;;15.72;54.65;155251.97;1736018;81;21395;-68
2020/12/15 02:20:09;;;;;;;50.30;22.60;;;;;;;15.72;54.51;155250.63;1720207;82;21438;-68
2020/12/15 02:22:56;;;;;;;51.55;22.70;;;;;;;15.69;54.51;155244.06;1691851;83;21418;-68
2020/12/15 02:25:30;;;;;;;48.45;22.22;;;;;;;15.30;55.16;155140.05;1739268;80;21794;-69
2020/12/15 02:28:03;;;;;;;53.35;23.83;;;;;;;15.59;54.86;155216.37;1692651;83;21391;-69
2020/12/15 02:30:35;;;;;;;52.60;23.47;;;;;;;15.63;54.73;155226.94;1734264;82;21213;-68
2020/12/15 02:33:09;;;;;;;56.10;24.32;;;;;;;15.65;54.73;155232.22;1731073;81;21364;-69
2020/12/15 02:35:44;;;;;;;51.77;23.07;;;;;;;15.69;54.68;155244.06;1723836;82;21259;-69
2020/12/15 02:38:16;;;;;;;51.88;22.82;;;;;;;15.74;54.60;155257.19;1690499;83;21375;-69
2020/12/15 02:40:50;;;;;;;56.55;23.73;;;;;;;15.78;54.36;155266.45;1708772;82;21343;-68
2020/12/15 02:43:36;;;;;;;48.17;23.42;;;;;;;15.31;55.10;155142.69;1740429;81;21665;-69
2020/12/15 02:46:09;;;;;;;51.15;22.90;;;;;;;15.40;55.07;155166.38;1729908;82;21358;-69
2020/12/15 02:48:42;;;;;;;55.78;23.77;;;;;;;15.26;55.36;155128.20;1746281;80;21349;-69
2020/12/15 02:51:15;;;;;;;53.35;22.40;;;;;;;15.27;55.10;155130.84;1746329;80;21201;-69
2020/12/15 02:53:52;;;;;;;50.20;22.45;;;;;;;15.55;54.67;155207.17;1700850;83;21198;-69
2020/12/15 02:56:26;;;;;;;50.95;23.80;;;;;;;15.28;54.90;155133.48;1689314;84;21399;-69
2020/12/15 02:59:00;;;;;;;53.75;23.27;;;;;;;15.47;54.52;155186.13;1669635;85;21249;-69
2020/12/15 03:01:39;;;;;;;48.35;21.02;;;;;;;15.26;54.69;155128.20;1683392;84;21395;-70
2020/12/15 03:04:12;;;;;;;49.40;22.32;;;;;;;15.15;54.69;155099.20;1701734;83;21390;-70
2020/12/15 03:06:47;;;;;;;51.25;24.23;;;;;;;14.93;55.35;155041.30;1717881;83;21250;-69
2020/12/15 03:09:21;;;;;;;48.95;22.48;;;;;;;14.91;55.44;155036.03;1723601;81;21184;-69
2020/12/15 03:12:00;;;;;;;50.52;22.87;;;;;;;15.14;55.35;155097.86;1698545;83;21833;-70
2020/12/15 03:14:35;;;;;;;44.45;20.10;;;;;;;14.92;55.66;155039.95;1671045;85;21843;-69
2020/12/15 03:17:08;;;;;;;46.10;21.00;;;;;;;14.92;55.74;155038.66;1741667;81;21236;-69
2020/12/15 03:19:42;;;;;;;47.73;21.20;;;;;;;14.93;55.74;155041.30;1749109;82;21283;-69
2020/12/15 03:22:15;;;;;;;50.43;22.00;;;;;;;15.09;55.56;155083.38;1735650;80;21202;-69
2020/12/15 03:24:49;;;;;;;48.28;21.10;;;;;;;15.23;55.10;155121.53;1748413;81;21332;-69
2020/12/15 03:27:23;;;;;;;51.45;23.50;;;;;;;15.22;54.95;155117.61;1743595;82;21256;-69
2020/12/15 03:29:56;;;;;;;45.90;20.48;;;;;;;15.24;55.02;155124.17;1728090;80;21211;-69
2020/12/15 03:32:28;;;;;;;44.98;21.82;;;;;;;15.26;55.18;155128.20;1738753;81;21406;-69
2020/12/15 03:35:01;;;;;;;50.08;22.52;;;;;;;15.37;55.06;155157.16;1739490;82;21390;-69
2020/12/15 03:37:34;;;;;;;49.60;22.17;;;;;;;15.42;54.92;155171.66;1748478;82;21771;-69
2020/12/15 03:40:07;;;;;;;49.18;23.20;;;;;;;15.43;54.83;155175.58;1746254;81;21657;-69
2020/12/15 03:42:44;;;;;;;52.73;22.70;;;;;;;15.57;54.78;155211.11;1703696;83;21826;-69
2020/12/15 03:45:18;;;;;;;50.92;23.25;;;;;;;15.61;54.66;155221.66;1686817;84;21379;-69
2020/12/15 03:47:50;;;;;;;48.73;22.52;;;;;;;15.65;54.63;155233.50;1708069;82;21697;-68
2020/12/15 03:50:23;;;;;;;48.95;22.42;;;;;;;15.67;54.59;155237.48;1665733;85;21276;-69
2020/12/15 03:52:55;;;;;;;50.03;22.22;;;;;;;15.69;54.48;155244.06;1685890;84;21394;-69
2020/12/15 03:55:29;;;;;;;52.58;24.23;;;;;;;15.68;54.58;155241.42;1711563;81;21819;-69
2020/12/15 03:58:06;;;;;;;52.23;24.12;;;;;;;15.71;54.52;155247.98;1700855;83;21210;-69
2020/12/15 04:00:40;;;;;;;56.50;25.17;;;;;;;15.71;54.40;155249.33;1710971;83;21402;-70
2020/12/15 04:03:14;;;;;;;50.38;24.57;;;;;;;15.60;54.34;155220.36;1712307;81;21232;-70
2020/12/15 04:05:51;;;;;;;54.88;25.70;;;;;;;15.58;54.51;155213.75;1737394;81;21256;-69
2020/12/15 04:08:30;;;;;;;54.20;24.75;;;;;;;15.57;54.45;155211.11;1740400;82;21398;-69
2020/12/15 04:10:59;;;;;;;53.52;23.95;;;;;;;15.59;54.51;155217.73;1734571;81;21173;-69
2020/12/15 04:13:46;;;;;;;46.73;22.73;;;;;;;15.65;54.52;155232.22;1682529;82;21210;-69
2020/12/15 04:16:19;;;;;;;57.65;24.63;;;;;;;15.31;55.05;155142.69;1742431;81;21284;-69
2020/12/15 04:18:53;;;;;;;55.98;23.52;;;;;;;15.36;55.09;155155.81;1747724;80;21720;-68
2020/12/15 04:21:28;;;;;;;51.15;24.18;;;;;;;15.68;54.78;155241.42;1729565;81;21271;-69
2020/12/15 04:24:02;;;;;;;57.35;25.85;;;;;;;15.80;54.49;155271.69;1745415;82;21740;-69
2020/12/15 04:26:38;;;;;;;61.90;26.85;;;;;;;15.77;54.31;155265.11;1732490;81;21426;-69
2020/12/15 04:29:11;;;;;;;54.50;25.40;;;;;;;15.63;54.29;155228.23;1711744;83;21293;-69
2020/12/15 04:31:45;;;;;;;56.10;25.27;;;;;;;15.54;54.46;155204.53;1708080;81;21178;-68
2020/12/15 04:34:18;;;;;;;60.10;25.55;;;;;;;15.49;54.54;155191.41;1708706;82;21894;-72
2020/12/15 04:36:51;;;;;;;54.95;25.35;;;;;;;15.43;54.50;155174.28;1705267;82;21197;-70
2020/12/15 04:39:26;;;;;;;55.55;26.05;;;;;;;15.36;54.89;155154.53;1729500;81;21281;-70
2020/12/15 04:41:59;;;;;;;51.08;23.57;;;;;;;15.43;55.02;155174.28;1734801;82;21363;-70
2020/12/15 04:44:33;;;;;;;50.52;23.32;;;;;;;15.45;55.21;155180.84;1762192;80;21206;-71
2020/12/15 04:47:34;;;;;;;47.08;22.95;;;;;;;15.27;55.50;155130.84;1739116;82;21188;-71
2020/12/15 04:50:14;;;;;;;48.05;21.60;;;;;;;15.22;55.66;155118.91;1720869;82;21397;-71
2020/12/15 04:52:58;;;;;;;44.38;19.92;;;;;;;15.19;55.85;155109.70;1742221;80;21232;-71
2020/12/15 04:55:35;;;;;;;47.95;20.85;;;;;;;15.20;56.10;155113.69;1714934;82;21370;-70
2020/12/15 04:58:09;;;;;;;44.00;20.77;;;;;;;15.07;57.42;155079.45;1696941;83;21474;-71
2020/12/15 05:00:55;;;;;;;41.80;21.60;;;;;;;15.17;57.55;155104.42;1728616;81;21234;-70
2020/12/15 05:03:39;;;;;;;45.85;20.15;;;;;;;15.13;57.62;155093.92;1691284;83;21384;-70
2020/12/15 05:06:16;;;;;;;42.70;20.27;;;;;;;15.13;57.96;155093.92;1706886;83;21392;-70
2020/12/15 05:08:50;;;;;;;42.67;18.77;;;;;;;15.11;57.85;155089.94;1739900;82;21202;-70
2020/12/15 05:11:24;;;;;;;41.75;19.32;;;;;;;15.11;57.79;155088.66;1733867;82;21806;-71
2020/12/15 05:14:01;;;;;;;40.85;18.60;;;;;;;15.04;58.01;155071.53;1722682;81;21209;-71
2020/12/15 05:16:38;;;;;;;40.60;19.40;;;;;;;14.80;58.56;155008.38;1711744;82;21378;-69
2020/12/15 05:19:15;;;;;;;41.20;19.12;;;;;;;14.78;58.93;155001.81;1718187;81;21317;-69
2020/12/15 05:22:00;;;;;;;39.20;17.12;;;;;;;15.06;59.01;155076.81;1703197;83;21680;-69
2020/12/15 05:24:35;;;;;;;36.30;16.67;;;;;;;15.16;59.21;155101.84;1708906;82;22287;-69
2020/12/15 05:27:08;;;;;;;32.78;17.02;;;;;;;15.24;59.25;155124.17;1722336;81;21244;-69
2020/12/15 05:29:43;;;;;;;39.33;17.62;;;;;;;15.28;59.35;155134.78;1706021;82;21190;-69
2020/12/15 05:32:18;;;;;;;36.73;18.70;;;;;;;15.33;59.40;155146.62;1659663;83;22195;-72
2020/12/15 05:34:57;;;;;;;42.83;19.07;;;;;;;15.14;58.95;155096.56;1715896;82;21979;-72
2020/12/15 05:37:47;;;;;;;41.92;19.35;;;;;;;14.97;59.21;155051.80;1672938;84;21354;-72
2020/12/15 05:40:30;;;;;;;40.73;20.82;;;;;;;14.92;59.83;155039.95;1710841;82;21194;-72
2020/12/15 05:43:12;;;;;;;43.20;18.42;;;;;;;15.07;59.24;155079.45;1713915;82;21335;-72
2020/12/15 05:45:50;;;;;;;41.80;19.40;;;;;;;14.98;59.27;155055.78;1690813;82;21834;-72
2020/12/15 05:48:27;;;;;;;40.28;19.92;;;;;;;15.14;58.91;155097.86;1708757;83;21205;-72
2020/12/15 05:51:00;;;;;;;36.85;18.57;;;;;;;15.26;58.76;155129.50;1721570;82;21217;-72
2020/12/15 05:53:32;;;;;;;35.30;17.30;;;;;;;15.28;58.80;155133.48;1719078;82;21713;-75
2020/12/15 05:56:06;;;;;;;41.90;17.73;;;;;;;15.72;57.83;155251.97;1730305;82;21359;-72
2020/12/15 05:58:39;;;;;;;36.42;16.17;;;;;;;15.46;57.93;155183.50;1733481;82;21205;-72
2020/12/15 06:01:12;;;;;;;40.30;17.77;;;;;;;15.38;58.03;155162.44;1747494;81;21252;-73
2020/12/15 06:03:54;;;;;;;30.92;14.65;;;;;;;15.36;58.17;155155.81;1738507;81;21344;-72
2020/12/15 06:06:27;;;;;;;29.48;14.80;;;;;;;15.80;57.27;155273.03;1713815;83;21848;-72
2020/12/15 06:08:59;;;;;;;37.55;16.40;;;;;;;15.66;57.18;155236.14;1703375;83;21406;-72
2020/12/15 06:11:33;;;;;;;30.45;14.98;;;;;;;15.67;57.43;155238.78;1707454;82;21183;-72
2020/12/15 06:14:06;;;;;;;27.45;13.85;;;;;;;15.83;57.20;155279.59;1702733;83;21367;-71
2020/12/15 06:16:39;;;;;;;26.77;14.18;;;;;;;15.59;57.48;155216.37;1664285;85;21396;-72
2020/12/15 06:19:12;;;;;;;32.28;15.10;;;;;;;15.55;57.62;155205.88;1729821;82;21396;-72
2020/12/15 06:21:58;;;;;;;34.73;15.72;;;;;;;15.69;57.23;155242.72;1721031;81;21705;-68
2020/12/15 06:24:38;;;;;;;34.05;15.10;;;;;;;15.58;57.18;155213.75;1725666;81;21292;-73
2020/12/15 06:27:08;;;;;;;32.50;15.23;;;;;;;15.47;57.17;155184.78;1702644;83;21246;-72
2020/12/15 06:29:41;;;;;;;28.55;13.18;;;;;;;15.55;57.22;155205.88;1712981;82;21182;-73
2020/12/15 06:32:20;;;;;;;27.35;13.95;;;;;;;15.54;57.18;155203.25;1713994;82;21186;-72
2020/12/15 06:34:53;;;;;;;23.95;12.70;;;;;;;15.54;57.23;155204.53;1667814;83;21190;-72
2020/12/15 06:37:26;;;;;;;25.57;11.75;;;;;;;15.56;57.17;155208.52;1642309;86;21430;-72
2020/12/15 06:40:04;;;;;;;24.20;13.90;;;;;;;15.59;57.14;155217.73;1641219;86;21300;-73
2020/12/15 06:42:37;;;;;;;23.73;12.47;;;;;;;15.54;57.08;155204.53;1650294;86;21234;-73
2020/12/15 06:45:12;;;;;;;19.85;11.25;;;;;;;15.47;57.17;155186.13;1659384;85;21420;-73
2020/12/15 06:47:44;;;;;;;21.35;11.33;;;;;;;15.50;57.23;155192.69;1675222;84;21424;-73
2020/12/15 06:50:18;;;;;;;17.62;10.60;;;;;;;15.36;57.60;155155.81;1730571;81;21345;-73
2020/12/15 06:52:51;;;;;;;18.73;10.48;;;;;;;15.39;57.83;155165.03;1689361;83;21354;-73
2020/12/15 06:55:31;;;;;;;20.55;10.13;;;;;;;15.52;57.51;155199.27;1655591;85;21356;-73
2020/12/15 06:58:03;;;;;;;19.10;9.75;;;;;;;15.57;57.18;155211.11;1724971;81;21377;-74
2020/12/15 07:00:40;;;;;;;20.88;9.88;;;;;;;15.60;57.33;155220.36;1722107;82;21217;-78
2020/12/15 07:03:12;;;;;;;19.55;10.05;;;;;;;15.46;57.49;155182.14;1719459;81;21180;-69
2020/12/15 07:05:45;;;;;;;21.60;10.80;;;;;;;15.40;57.48;155167.66;1706764;83;21270;-73
2020/12/15 07:08:17;;;;;;;30.92;11.70;;;;;;;15.33;57.22;155147.95;1649015;85;21725;-73
2020/12/15 07:10:49;;;;;;;21.55;11.40;;;;;;;15.16;57.51;155103.13;1660194;83;21705;-73
2020/12/15 07:13:22;;;;;;;20.08;11.40;;;;;;;15.13;57.58;155095.22;1715772;81;21502;-73
2020/12/15 07:15:54;;;;;;;25.82;12.50;;;;;;;14.97;57.91;155051.80;1752693;80;21189;-74
2020/12/15 07:18:26;;;;;;;23.27;12.85;;;;;;;14.92;58.00;155038.66;1708265;82;21224;-72
2020/12/15 07:21:00;;;;;;;25.08;12.05;;;;;;;14.99;57.78;155058.36;1736198;82;21205;-73
2020/12/15 07:23:34;;;;;;;25.65;11.83;;;;;;;14.98;57.85;155054.44;1681636;83;21378;-73
2020/12/15 07:26:18;;;;;;;21.70;11.75;;;;;;;14.96;58.06;155050.50;1733031;81;21267;-74
2020/12/15 07:28:51;;;;;;;22.37;11.73;;;;;;;14.92;58.21;155038.66;1683141;83;21396;-74
2020/12/15 07:31:30;;;;;;;23.83;12.65;;;;;;;14.86;58.36;155022.84;1657086;85;21742;-74
2020/12/15 07:34:17;;;;;;;23.10;12.10;;;;;;;14.94;58.50;155043.89;1713248;82;21842;-75
2020/12/15 07:36:51;;;;;;;23.87;12.28;;;;;;;15.08;58.33;155080.75;1701302;83;21317;-74
2020/12/15 07:39:23;;;;;;;20.75;12.28;;;;;;;15.00;58.55;155059.70;1705321;83;21434;-74
2020/12/15 07:42:04;;;;;;;24.65;14.10;;;;;;;15.04;58.53;155070.25;1722877;82;21285;-74
2020/12/15 07:44:40;;;;;;;26.80;12.13;;;;;;;15.07;58.28;155079.45;1714378;82;21381;-75
2020/12/15 07:47:13;;;;;;;22.37;11.43;;;;;;;15.04;58.37;155070.25;1707522;82;21227;-74
2020/12/15 07:49:54;;;;;;;28.02;12.78;;;;;;;14.90;58.77;155034.69;1712241;82;21849;-73
2020/12/15 07:52:37;;;;;;;26.52;13.22;;;;;;;14.98;58.90;155054.44;1700633;83;21249;-74
2020/12/15 07:55:15;;;;;;;25.72;12.40;;;;;;;15.22;58.65;155117.61;1739367;82;21224;-74
2020/12/15 07:57:49;;;;;;;21.60;11.80;;;;;;;15.24;58.86;155124.17;1706616;82;22459;-74
2020/12/15 08:00:22;;;;;;;24.07;12.53;;;;;;;15.35;58.89;155151.89;1652372;85;22828;-74
2020/12/15 08:03:01;;;;;;;23.35;12.60;;;;;;;15.50;58.81;155194.03;1697913;83;21675;-73
2020/12/15 08:05:34;;;;;;;28.73;14.33;;;;;;;15.60;58.81;155220.36;1734427;81;21252;-74
2020/12/15 08:08:06;;;;;;;32.45;15.08;;;;;;;15.67;58.54;155237.48;1727478;80;21224;-73
2020/12/15 08:10:38;;;;;;;33.70;15.50;;;;;;;15.66;58.59;155236.14;1714562;82;21245;-74
2020/12/15 08:13:11;;;;;;;45.65;20.27;;;;;;;15.74;58.39;155257.19;1709895;82;21417;-74
2020/12/15 08:15:44;;;;;;;38.88;17.77;;;;;;;15.78;58.43;155266.45;1669082;84;21847;-75
2020/12/15 08:18:18;;;;;;;33.45;18.07;;;;;;;15.82;58.28;155278.31;1732977;81;21979;-74
2020/12/15 08:20:51;;;;;;;37.78;17.45;;;;;;;15.86;58.07;155288.81;1695007;83;21763;-74
2020/12/15 08:23:24;;;;;;;32.08;15.80;;;;;;;15.79;57.88;155270.39;1681301;83;21432;-73
2020/12/15 08:25:59;;;;;;;34.25;16.67;;;;;;;15.82;58.00;155276.95;1729388;81;21403;-74
2020/12/15 08:28:31;;;;;;;35.63;16.65;;;;;;;15.96;58.04;155313.84;1724417;82;21408;-74
2020/12/15 08:31:09;;;;;;;34.92;17.52;;;;;;;16.07;58.00;155344.16;1705377;83;21258;-74
2020/12/15 08:33:41;;;;;;;31.93;15.50;;;;;;;16.11;57.87;155353.38;1727761;81;21345;-73
2020/12/15 08:36:13;;;;;;;28.12;14.13;;;;;;;16.17;57.67;155370.50;1730235;82;21418;-74
2020/12/15 08:38:46;;;;;;;30.62;15.90;;;;;;;16.28;57.77;155400.78;1706317;83;21994;-74
2020/12/15 08:41:18;;;;;;;27.60;13.95;;;;;;;16.36;57.56;155420.59;1661694;85;21824;-74
2020/12/15 08:43:51;;;;;;;25.52;14.28;;;;;;;16.44;57.39;155441.67;1693564;83;21248;-73
2020/12/15 08:46:23;;;;;;;25.48;13.68;;;;;;;16.51;57.42;155460.16;1730364;81;21928;-75
2020/12/15 08:48:56;;;;;;;28.27;14.15;;;;;;;16.40;57.37;155432.45;1686719;84;21229;-72
2020/12/15 08:51:28;;;;;;;24.98;13.45;;;;;;;16.33;56.94;155412.69;1721346;82;21395;-74
2020/12/15 08:54:01;;;;;;;26.62;12.85;;;;;;;16.26;56.41;155394.20;1704588;83;21238;-71
2020/12/15 08:56:34;;;;;;;25.60;12.70;;;;;;;16.16;56.38;155367.88;1708285;83;21247;-71
2020/12/15 08:59:15;;;;;;;25.45;12.85;;;;;;;15.97;56.30;155317.78;1710322;83;21201;-69
2020/12/15 09:01:48;;;;;;;27.20;13.83;;;;;;;15.80;56.45;155273.03;1652775;84;21599;-79
2020/12/15 09:04:27;;;;;;;26.93;13.72;;;;;;;15.71;56.55;155247.98;1666012;83;21196;-65
2020/12/15 09:07:00;;;;;;;23.77;12.85;;;;;;;15.66;56.98;155236.14;1695957;80;21294;-71
2020/12/15 09:09:34;;;;;;;27.60;14.53;;;;;;;15.71;56.96;155247.98;1660059;83;21244;-73
2020/12/15 09:12:07;;;;;;;26.40;12.37;;;;;;;15.54;57.22;155203.25;1703184;80;21810;-73
2020/12/15 09:14:40;;;;;;;24.23;13.68;;;;;;;15.45;57.40;155180.84;1679813;82;21852;-76
2020/12/15 09:17:25;;;;;;;28.30;14.65;;;;;;;15.48;57.31;155188.77;1659123;84;21462;-78
2020/12/15 09:19:57;;;;;;;32.38;13.65;;;;;;;15.45;57.46;155180.84;1650128;84;21234;-75
2020/12/15 09:22:30;;;;;;;30.12;14.13;;;;;;;15.39;57.62;155165.03;1646208;83;21345;-79
2020/12/15 09:25:13;;;;;;;27.60;14.10;;;;;;;15.31;57.68;155142.69;1690682;82;21886;-74
2020/12/15 09:27:47;;;;;;;29.07;14.63;;;;;;;15.38;57.62;155159.80;1702181;82;21278;-71
2020/12/15 09:30:20;;;;;;;30.50;14.63;;;;;;;15.39;57.55;155165.03;1679061;83;21240;-71
2020/12/15 09:32:57;;;;;;;28.02;15.00;;;;;;;15.42;57.40;155171.66;1685174;82;21829;-73
2020/12/15 09:35:43;;;;;;;27.00;14.83;;;;;;;15.45;57.56;155179.50;1657178;84;21924;-68
2020/12/15 09:38:21;;;;;;;27.37;15.43;;;;;;;15.55;57.42;155207.17;1705109;80;21843;-74
2020/12/15 09:40:54;;;;;;;27.50;14.38;;;;;;;15.45;57.15;155180.84;1702427;82;21183;-72
2020/12/15 09:43:27;;;;;;;26.68;14.18;;;;;;;15.29;56.91;155136.06;1708606;80;21275;-73
2020/12/15 09:46:02;;;;;;;30.25;14.20;;;;;;;15.44;57.28;155178.22;1678234;82;21411;-75
2020/12/15 09:48:35;;;;;;;28.60;15.05;;;;;;;15.35;57.05;155151.89;1661119;84;21743;-71
2020/12/15 09:51:13;;;;;;;32.88;15.80;;;;;;;15.29;57.18;155136.06;1654875;83;22552;-80
2020/12/15 09:53:45;;;;;;;30.62;14.35;;;;;;;15.33;57.42;155146.62;1652852;83;21951;-68
2020/12/15 09:56:18;;;;;;;26.87;14.40;;;;;;;15.18;57.49;155107.06;1664800;84;21386;-67
2020/12/15 09:58:51;;;;;;;28.50;14.80;;;;;;;15.23;57.61;155121.53;1655764;83;21265;-69
2020/12/15 10:01:25;;;;;;;33.13;16.37;;;;;;;15.29;57.53;155136.06;1661914;83;21490;-79
2020/12/15 10:03:58;;;;;;;34.27;16.90;;;;;;;15.33;57.45;155146.62;1688207;81;21267;-74
2020/12/15 10:06:30;;;;;;;34.35;17.37;;;;;;;15.35;57.56;155151.89;1697018;81;21248;-73
2020/12/15 10:09:06;;;;;;;38.08;17.30;;;;;;;15.33;57.69;155146.62;1670375;83;21821;-70
2020/12/15 10:11:40;;;;;;;36.08;17.85;;;;;;;15.43;57.52;155174.28;1655705;83;21261;-73
2020/12/15 10:14:12;;;;;;;32.93;18.42;;;;;;;15.54;57.32;155204.53;1659854;83;21862;-75
2020/12/15 10:16:46;;;;;;;34.35;17.45;;;;;;;15.35;57.29;155153.19;1635326;85;21269;-75
2020/12/15 10:19:19;;;;;;;38.70;18.45;;;;;;;15.36;57.34;155154.53;1647386;84;21914;-74
2020/12/15 10:21:56;;;;;;;36.60;15.93;;;;;;;15.43;57.33;155175.58;1687821;82;21271;-74
2020/12/15 10:24:28;;;;;;;35.65;16.60;;;;;;;15.45;57.25;155179.50;1688978;82;21351;-73
2020/12/15 10:27:01;;;;;;;32.88;16.77;;;;;;;15.36;56.99;155155.81;1644464;84;21721;-73
2020/12/15 10:29:33;;;;;;;34.98;18.02;;;;;;;15.48;57.07;155188.77;1657414;85;21336;-73
2020/12/15 10:32:06;;;;;;;38.95;19.12;;;;;;;15.53;57.23;155201.91;1700437;81;21344;-73
2020/12/15 10:34:45;;;;;;;38.05;19.37;;;;;;;15.39;57.22;155165.03;1711743;81;21279;-74
2020/12/15 10:37:20;;;;;;;40.03;18.67;;;;;;;15.32;57.33;155145.33;1712707;80;21221;-74
2020/12/15 10:40:00;;;;;;;39.73;18.90;;;;;;;15.20;57.50;155112.34;1697820;82;21802;-72
2020/12/15 10:42:32;;;;;;;38.70;19.55;;;;;;;15.43;57.36;155174.28;1706882;80;21361;-71
2020/12/15 10:45:07;;;;;;;37.60;19.48;;;;;;;15.37;57.31;155157.16;1701664;80;21284;-71
2020/12/15 10:47:40;;;;;;;40.35;19.48;;;;;;;15.29;57.76;155136.06;1694392;81;21240;-70
2020/12/15 10:50:14;;;;;;;39.13;19.60;;;;;;;15.40;57.77;155167.66;1704645;82;21414;-72
2020/12/15 10:52:47;;;;;;;41.23;21.23;;;;;;;15.48;57.63;155188.77;1700744;83;21331;-67
2020/12/15 10:55:19;;;;;;;43.00;21.07;;;;;;;15.46;57.62;155182.14;1703518;83;21218;-67
2020/12/15 10:57:52;;;;;;;41.30;20.08;;;;;;;15.44;57.46;155178.22;1730948;82;21786;-68
2020/12/15 11:00:24;;;;;;;45.30;21.02;;;;;;;15.44;57.47;155178.22;1730175;82;21770;-67
2020/12/15 11:02:56;;;;;;;48.17;20.68;;;;;;;15.41;57.58;155169.00;1725469;81;21891;-67
2020/12/15 11:05:29;;;;;;;41.42;20.40;;;;;;;15.57;57.40;155212.45;1730684;81;21413;-68
2020/12/15 11:08:01;;;;;;;44.80;19.85;;;;;;;15.59;57.31;155216.37;1729855;82;21253;-67
2020/12/15 11:10:34;;;;;;;45.45;20.88;;;;;;;15.62;57.25;155225.59;1707967;82;21267;-68
2020/12/15 11:13:07;;;;;;;38.28;19.25;;;;;;;15.67;57.25;155238.78;1705388;83;21395;-72
2020/12/15 11:15:39;;;;;;;37.98;19.90;;;;;;;15.72;57.23;155251.97;1729471;81;21758;-71
2020/12/15 11:18:12;;;;;;;44.18;19.37;;;;;;;15.74;57.09;155255.91;1708932;81;21386;-70
2020/12/15 11:20:44;;;;;;;40.65;19.35;;;;;;;15.73;56.95;155254.61;1727433;82;21284;-70
2020/12/15 11:23:16;;;;;;;38.38;19.12;;;;;;;15.70;56.97;155246.69;1704838;83;21235;-70
2020/12/15 11:25:49;;;;;;;41.13;20.75;;;;;;;15.75;57.00;155259.83;1724494;81;21268;-69
2020/12/15 11:28:22;;;;;;;40.98;19.35;;;;;;;15.74;57.02;155257.19;1704561;83;21195;-70
2020/12/15 11:30:54;;;;;;;39.88;18.98;;;;;;;15.82;57.06;155276.95;1711569;82;21751;-71
2020/12/15 11:33:27;;;;;;;38.70;20.45;;;;;;;15.80;56.78;155271.69;1731752;82;21216;-70
2020/12/15 11:35:59;;;;;;;35.40;17.57;;;;;;;15.71;56.78;155249.33;1712087;83;21303;-70
2020/12/15 11:38:31;;;;;;;36.63;18.15;;;;;;;15.71;56.84;155249.33;1653020;85;21229;-70
2020/12/15 11:41:04;;;;;;;40.75;19.42;;;;;;;15.78;56.84;155266.45;1729447;81;21402;-70
2020/12/15 11:43:36;;;;;;;37.40;18.65;;;;;;;15.69;56.79;155242.72;1724338;82;21710;-70